Main page
METAR-TAF:

METAR-TAF

Airports :

Wharton Regional Airport

Wharton, Texas, United States

latitude: 29-15-15N, longitude: 096-09-15W, elevation: 102 ft

Current weather observation

The report was made 22 minutes ago, at 18:55 UTC
Wind 5 mph from the East/Northeast
Temperature 91°F
Humidity 49%
Pressure 29.93 in. Hg
Visibility: 10 miles
Scattered clouds at a height of 5000 ft

METAR: KARM 141855Z AUTO 06004KT 10SM SCT050 33/21 A2993 RMK AO2 T03290206 TSNO

Time: 14:17 (19:17 UTC)


TAF: missing

Weather observations and forecasts of more than 4000 airports (METAR and TAF reports).

The available stations are represented by yellow and red dots on the map.

Hover mouse over dot to see the name of the station.

Then click to see weather observations and forecasts.

To change the map : click on the green buttons with a black cross to zoom in, on the green button with a dash to zoom out, or on the green arrows for adjacent maps.


METAR-TAF: